Time;durP1;ratioP1;P1;durP2;ratioP2;P2;SDS_P1;SDS_P2;PMS_P1;PMS_P2;Temp;Humidity;BMP_temperature;BMP_pressure;BME280_temperature;BME280_humidity;BME280_pressure;Samples;Min_cycle;Max_cycle;Signal;HPM_P1;HPM_P2
2023/06/28 00:00:54;;;;;;;11.65;2.70;;;;;;;14.94;100.00;101989.38;5052428;28;20068;-84
2023/06/28 00:03:20;;;;;;;8.25;2.42;;;;;;;14.92;100.00;101994.00;5053684;28;20115;-85
2023/06/28 00:05:45;;;;;;;8.60;3.40;;;;;;;14.90;100.00;101984.41;5054177;28;20051;-84
2023/06/28 00:08:10;;;;;;;10.27;3.05;;;;;;;14.92;100.00;101987.81;5052759;28;20119;-81
2023/06/28 00:10:36;;;;;;;10.50;2.67;;;;;;;14.92;100.00;101988.66;5052372;28;20334;-84
2023/06/28 00:13:01;;;;;;;10.00;2.95;;;;;;;14.92;100.00;101985.97;5053579;28;20461;-84
2023/06/28 00:15:27;;;;;;;8.30;2.63;;;;;;;14.95;100.00;101992.88;5052523;28;20432;-84
2023/06/28 00:17:52;;;;;;;8.65;3.00;;;;;;;14.96;100.00;101987.38;5053675;28;20063;-84
2023/06/28 00:20:35;;;;;;;12.35;3.58;;;;;;;14.96;100.00;101990.06;5069493;28;20043;-83
2023/06/28 00:23:01;;;;;;;8.07;3.05;;;;;;;14.95;100.00;101996.41;5052590;28;20037;-82
2023/06/28 00:25:26;;;;;;;15.00;3.05;;;;;;;14.95;100.00;101993.72;5053566;28;20029;-84
2023/06/28 00:27:52;;;;;;;11.77;3.03;;;;;;;14.96;100.00;101990.06;5053048;28;20056;-83
2023/06/28 00:30:17;;;;;;;8.45;3.03;;;;;;;14.97;100.00;101991.78;5052109;28;20106;-82
2023/06/28 00:32:43;;;;;;;11.43;3.33;;;;;;;14.97;100.00;101981.06;5056436;28;20342;-83
2023/06/28 00:35:08;;;;;;;10.18;3.17;;;;;;;14.99;100.00;101981.75;5057239;28;20533;-83
2023/06/28 00:37:34;;;;;;;10.70;3.47;;;;;;;14.99;100.00;101984.44;5056590;28;20150;-84
2023/06/28 00:40:00;;;;;;;11.55;3.60;;;;;;;15.01;100.00;101991.50;5056009;28;20032;-84
2023/06/28 00:42:25;;;;;;;10.70;3.63;;;;;;;15.02;100.00;101982.44;5053589;28;20037;-82
2023/06/28 00:44:51;;;;;;;7.03;2.83;;;;;;;15.02;100.00;101977.09;5053696;28;20426;-83
2023/06/28 00:47:18;;;;;;;7.35;3.55;;;;;;;15.02;100.00;101974.41;5052791;28;20120;-83
2023/06/28 00:49:45;;;;;;;10.30;3.75;;;;;;;15.00;100.00;101969.19;5053298;28;20076;-84
2023/06/28 00:52:12;;;;;;;12.15;3.55;;;;;;;15.03;100.00;101974.25;5053546;28;20112;-84
2023/06/28 00:54:39;;;;;;;8.20;3.20;;;;;;;15.02;100.00;101979.75;5052070;28;20036;-84
2023/06/28 00:57:05;;;;;;;10.43;3.47;;;;;;;14.99;100.00;101968.34;5035169;28;20029;-82
2023/06/28 00:59:31;;;;;;;11.93;4.07;;;;;;;14.97;100.00;101973.00;5051375;28;20048;-83
2023/06/28 01:01:56;;;;;;;13.85;3.90;;;;;;;14.94;100.00;101962.56;5053544;28;20045;-83
2023/06/28 01:04:22;;;;;;;10.32;3.70;;;;;;;14.92;100.00;101977.94;5053060;28;20098;-83
2023/06/28 01:06:51;;;;;;;14.48;4.10;;;;;;;14.88;100.00;101964.97;5051762;28;20052;-84
2023/06/28 01:09:24;;;;;;;8.98;3.70;;;;;;;14.88;100.00;101975.66;5055016;28;20047;-83
2023/06/28 01:11:51;;;;;;;14.93;3.83;;;;;;;14.86;100.00;101973.13;5053010;28;20059;-84
2023/06/28 01:14:18;;;;;;;15.70;4.40;;;;;;;14.85;100.00;101970.59;5053686;28;20029;-84
2023/06/28 01:16:45;;;;;;;11.48;3.95;;;;;;;14.85;100.00;101965.25;5053467;28;20571;-84
2023/06/28 01:19:13;;;;;;;11.05;4.50;;;;;;;14.85;100.00;101960.72;5035272;28;20392;-83
2023/06/28 01:21:42;;;;;;;16.17;4.45;;;;;;;14.89;100.00;101961.28;5054271;28;20052;-76
2023/06/28 01:24:10;;;;;;;11.50;4.05;;;;;;;14.90;100.00;101962.97;5053382;28;20025;-76
2023/06/28 01:26:37;;;;;;;10.65;4.18;;;;;;;14.90;100.00;101961.16;5055079;28;20041;-77
2023/06/28 01:29:03;;;;;;;12.50;4.38;;;;;;;14.91;100.00;101960.19;5054560;28;20029;-77
2023/06/28 01:31:30;;;;;;;14.80;4.75;;;;;;;14.91;100.00;101953.94;5054470;28;20112;-77
2023/06/28 01:33:55;;;;;;;10.57;4.30;;;;;;;14.95;100.00;101964.25;5053190;28;20040;-77
2023/06/28 01:36:21;;;;;;;12.30;4.53;;;;;;;14.94;100.00;101962.56;5054151;28;20029;-76
2023/06/28 01:38:47;;;;;;;16.05;4.57;;;;;;;14.96;100.00;101968.63;5054642;28;20036;-75
2023/06/28 01:41:13;;;;;;;13.80;5.13;;;;;;;14.94;100.00;101967.94;5054349;28;20039;-76
2023/06/28 01:43:40;;;;;;;10.10;3.75;;;;;;;14.96;100.00;101973.16;5054038;28;20033;-77
2023/06/28 01:46:05;;;;;;;7.38;4.22;;;;;;;14.97;100.00;101974.81;5054861;28;20025;-76
2023/06/28 01:48:31;;;;;;;11.00;4.70;;;;;;;14.95;100.00;101974.97;5054189;28;20173;-77
2023/06/28 01:50:57;;;;;;;10.50;4.55;;;;;;;14.96;100.00;101970.47;5054764;28;20080;-76
2023/06/28 01:53:22;;;;;;;12.73;4.88;;;;;;;14.99;100.00;101975.56;5036236;28;20076;-77
2023/06/28 01:55:48;;;;;;;13.55;5.15;;;;;;;15.01;100.00;101972.72;5054192;28;20029;-77
2023/06/28 01:58:13;;;;;;;18.20;5.30;;;;;;;15.01;100.00;101972.72;5054321;28;20521;-77
2023/06/28 02:00:38;;;;;;;12.80;5.05;;;;;;;15.03;100.00;101973.44;5054257;28;20472;-77
2023/06/28 02:03:04;;;;;;;14.20;5.15;;;;;;;15.04;100.00;101975.97;5054014;28;20388;-77
2023/06/28 02:05:30;;;;;;;12.38;5.13;;;;;;;15.05;100.00;101969.63;5053958;28;20175;-77
2023/06/28 02:07:55;;;;;;;14.93;4.57;;;;;;;15.08;100.00;101969.34;5054138;28;20033;-77
2023/06/28 02:10:24;;;;;;;11.90;4.88;;;;;;;15.08;100.00;101961.31;5052983;28;20032;-76
2023/06/28 02:12:49;;;;;;;12.50;4.80;;;;;;;15.07;100.00;101967.63;5054065;28;20029;-76
2023/06/28 02:15:15;;;;;;;11.68;4.88;;;;;;;15.08;100.00;101960.47;5052444;28;20040;-76
2023/06/28 02:17:41;;;;;;;10.98;4.57;;;;;;;15.08;100.00;101963.97;5054286;28;20040;-76
2023/06/28 02:20:12;;;;;;;10.20;4.10;;;;;;;15.09;100.00;101954.97;5053678;28;20043;-76
2023/06/28 02:22:38;;;;;;;14.32;4.93;;;;;;;15.11;100.00;101954.81;5053775;28;20380;-76
2023/06/28 02:25:04;;;;;;;15.35;5.40;;;;;;;15.12;100.00;101960.03;5053579;28;20040;-76
2023/06/28 02:27:29;;;;;;;11.63;4.38;;;;;;;15.09;100.00;101949.59;5053505;28;20063;-75
2023/06/28 02:29:56;;;;;;;15.43;4.53;;;;;;;15.08;100.00;101953.25;5053489;28;20032;-76
2023/06/28 02:32:21;;;;;;;16.58;4.50;;;;;;;15.08;100.00;101947.06;5053886;28;20047;-76
2023/06/28 02:34:47;;;;;;;10.20;4.18;;;;;;;15.08;100.00;101955.94;5051856;28;20036;-76
2023/06/28 02:37:12;;;;;;;11.35;4.32;;;;;;;15.07;100.00;101948.03;5052423;28;20040;-77
2023/06/28 02:39:38;;;;;;;14.60;4.63;;;;;;;15.09;100.00;101936.19;5054274;28;20379;-75
2023/06/28 02:42:03;;;;;;;9.93;4.40;;;;;;;15.13;100.00;101939.44;5053644;28;20091;-76
2023/06/28 02:44:29;;;;;;;14.15;4.00;;;;;;;15.13;100.00;101939.44;5053261;28;20028;-75
2023/06/28 02:46:54;;;;;;;13.48;3.67;;;;;;;15.09;100.00;101938.88;5053318;28;20377;-76
2023/06/28 02:49:19;;;;;;;14.30;4.47;;;;;;;15.12;100.00;101935.03;5052809;28;20406;-76
2023/06/28 02:51:45;;;;;;;9.00;3.88;;;;;;;15.15;100.00;101934.75;5053325;28;20041;-76
2023/06/28 02:54:10;;;;;;;9.75;4.28;;;;;;;15.15;100.00;101934.75;5053308;28;20036;-77
2023/06/28 02:56:35;;;;;;;9.40;4.03;;;;;;;15.15;100.00;101935.63;5053127;28;20492;-76
2023/06/28 02:59:01;;;;;;;12.63;4.00;;;;;;;15.16;100.00;101933.78;5052591;28;20037;-76
2023/06/28 03:01:26;;;;;;;10.18;3.88;;;;;;;15.15;100.00;101938.31;5053363;28;20029;-76
2023/06/28 03:03:52;;;;;;;14.68;4.50;;;;;;;15.13;100.00;101940.25;5053387;28;20032;-76
2023/06/28 03:06:17;;;;;;;15.10;4.38;;;;;;;15.11;100.00;101942.25;5051853;28;20029;-74
2023/06/28 03:08:43;;;;;;;17.25;4.40;;;;;;;15.11;100.00;101936.06;5053434;28;20048;-75
2023/06/28 03:11:08;;;;;;;12.68;4.78;;;;;;;15.09;100.00;101938.88;5053321;28;20060;-76
2023/06/28 03:13:34;;;;;;;15.75;4.65;;;;;;;15.06;100.00;101939.16;5052964;28;20107;-76
2023/06/28 03:15:59;;;;;;;14.35;4.45;;;;;;;15.05;100.00;101941.97;5053001;28;20037;-77
2023/06/28 03:18:25;;;;;;;13.55;4.13;;;;;;;15.02;100.00;101943.09;5052114;28;20109;-76
2023/06/28 03:20:51;;;;;;;13.35;4.25;;;;;;;14.99;100.00;101935.34;5052721;28;20028;-76
2023/06/28 03:23:16;;;;;;;14.48;4.25;;;;;;;14.99;100.00;101940.72;5056877;28;20037;-77
2023/06/28 03:25:42;;;;;;;15.80;4.57;;;;;;;14.95;100.00;101936.63;5057616;28;20029;-76
2023/06/28 03:28:07;;;;;;;15.40;5.35;;;;;;;14.94;100.00;101935.78;5057164;28;20423;-76
2023/06/28 03:30:33;;;;;;;12.15;5.28;;;;;;;14.93;100.00;101928.72;5057452;28;20384;-75
2023/06/28 03:32:59;;;;;;;17.85;5.07;;;;;;;14.90;100.00;101934.38;5056877;28;20354;-75
2023/06/28 03:35:24;;;;;;;7.68;4.38;;;;;;;14.86;100.00;101930.25;5056440;28;20108;-75
2023/06/28 03:37:53;;;;;;;11.75;4.70;;;;;;;14.85;100.00;101930.41;5055831;28;20064;-76
2023/06/28 03:40:19;;;;;;;14.13;4.45;;;;;;;14.83;100.00;101922.50;5056924;28;20032;-75
2023/06/28 03:42:45;;;;;;;17.00;4.00;;;;;;;14.82;100.00;101915.44;5056329;28;20037;-75
2023/06/28 03:45:10;;;;;;;17.25;4.43;;;;;;;14.83;100.00;101914.47;5056531;28;20064;-75
2023/06/28 03:47:35;;;;;;;10.73;4.28;;;;;;;14.81;100.00;101913.78;5056968;28;20047;-75
2023/06/28 03:50:01;;;;;;;13.73;4.10;;;;;;;14.76;100.00;101914.19;5055169;28;20056;-77
2023/06/28 03:52:27;;;;;;;12.65;4.35;;;;;;;14.70;100.00;101912.06;5056512;28;20033;-75
2023/06/28 03:54:52;;;;;;;14.07;4.93;;;;;;;14.70;100.00;101916.59;5056539;28;20488;-74
2023/06/28 03:57:20;;;;;;;17.98;4.80;;;;;;;14.69;100.00;101920.22;5055267;28;20037;-75
2023/06/28 03:59:46;;;;;;;16.67;4.70;;;;;;;14.65;100.00;101910.81;5056546;28;20032;-75
2023/06/28 04:02:11;;;;;;;12.23;4.57;;;;;;;14.65;100.00;101910.81;5055021;28;20386;-75
2023/06/28 04:04:36;;;;;;;20.92;5.40;;;;;;;14.61;100.00;101905.75;5038329;28;20531;-75
2023/06/28 04:07:02;;;;;;;12.60;4.72;;;;;;;14.60;100.00;101906.69;5056472;28;20037;-75
2023/06/28 04:09:28;;;;;;;18.55;4.90;;;;;;;14.60;100.00;101914.72;5056280;28;20358;-75
2023/06/28 04:11:53;;;;;;;10.80;5.00;;;;;;;14.60;100.00;101913.84;5056281;28;20083;-75
2023/06/28 04:14:18;;;;;;;11.75;4.55;;;;;;;14.60;100.00;101909.34;5056068;28;20041;-75
2023/06/28 04:16:44;;;;;;;17.25;5.97;;;;;;;14.61;100.00;101905.75;5055757;28;20041;-76
2023/06/28 04:19:09;;;;;;;20.65;5.65;;;;;;;14.62;100.00;101907.41;5055939;28;20116;-77
2023/06/28 04:21:34;;;;;;;13.30;5.22;;;;;;;14.66;100.00;101912.47;5055859;28;20035;-76
2023/06/28 04:24:00;;;;;;;18.77;5.78;;;;;;;14.68;100.00;101906.00;5055902;28;20086;-77
2023/06/28 04:26:25;;;;;;;16.92;5.57;;;;;;;14.69;100.00;101907.72;5055930;28;20032;-76
2023/06/28 04:28:51;;;;;;;11.55;5.10;;;;;;;14.73;100.00;101903.75;5055966;28;20041;-77
2023/06/28 04:31:16;;;;;;;11.82;5.32;;;;;;;14.74;100.00;101897.41;5056315;28;20072;-77
2023/06/28 04:33:41;;;;;;;10.23;5.05;;;;;;;14.77;100.00;101905.16;5053629;28;20079;-76
2023/06/28 04:36:07;;;;;;;13.07;5.05;;;;;;;14.77;100.00;101899.81;5055768;28;20033;-76
2023/06/28 04:38:32;;;;;;;16.10;5.20;;;;;;;14.80;100.00;101910.22;5055888;28;20047;-76
2023/06/28 04:40:59;;;;;;;15.18;5.55;;;;;;;14.81;100.00;101911.09;5055925;28;20041;-76
2023/06/28 04:43:24;;;;;;;13.88;5.88;;;;;;;14.85;100.00;101907.13;5055527;28;20041;-76
2023/06/28 04:45:49;;;;;;;19.30;5.82;;;;;;;14.88;100.00;101912.19;5055223;28;20029;-76
2023/06/28 04:48:15;;;;;;;13.40;5.65;;;;;;;14.91;100.00;101911.94;5056024;28;20041;-76
2023/06/28 04:50:40;;;;;;;12.60;5.50;;;;;;;14.93;100.00;101904.59;5054021;28;20084;-76
2023/06/28 04:53:05;;;;;;;13.77;6.38;;;;;;;14.98;100.00;101906.84;5055371;28;20041;-76
2023/06/28 04:55:35;;;;;;;15.38;6.25;;;;;;;14.97;100.00;101906.03;5055350;28;20372;-75
2023/06/28 04:58:05;;;;;;;15.15;6.68;;;;;;;15.01;100.00;101905.72;5055340;28;20474;-77
2023/06/28 05:00:32;;;;;;;13.00;5.95;;;;;;;15.06;100.00;101903.47;5054871;28;20419;-76
2023/06/28 05:03:00;;;;;;;16.00;6.78;;;;;;;15.09;100.00;101897.81;5038204;28;20346;-76
2023/06/28 05:05:26;;;;;;;26.15;7.88;;;;;;;15.10;100.00;101905.69;5055121;28;20111;-76
2023/06/28 05:07:55;;;;;;;13.80;6.10;;;;;;;15.12;100.00;101903.75;5055356;28;20090;-76
2023/06/28 05:10:22;;;;;;;15.77;6.60;;;;;;;15.16;100.00;101904.28;5055005;28;20060;-76
2023/06/28 05:12:50;;;;;;;27.50;7.32;;;;;;;15.20;100.00;101900.34;5055017;28;20029;-75
2023/06/28 05:15:15;;;;;;;21.10;7.38;;;;;;;15.22;100.00;101901.03;5054989;28;20115;-76
2023/06/28 05:17:41;;;;;;;17.58;7.05;;;;;;;15.24;100.00;101899.06;5055136;28;20064;-75
2023/06/28 05:20:07;;;;;;;19.23;6.95;;;;;;;15.29;100.00;101904.84;5054953;28;20041;-76
2023/06/28 05:22:32;;;;;;;18.02;6.82;;;;;;;15.29;100.00;101898.63;5054767;28;20098;-75
2023/06/28 05:24:57;;;;;;;14.63;7.18;;;;;;;15.32;100.00;101893.81;5055019;28;20029;-75
2023/06/28 05:27:23;;;;;;;16.60;7.25;;;;;;;15.37;100.00;101897.91;5054801;28;20051;-76
2023/06/28 05:29:48;;;;;;;19.48;7.78;;;;;;;15.39;100.00;101896.78;5054233;28;20033;-76
2023/06/28 05:32:13;;;;;;;17.20;6.38;;;;;;;15.43;100.00;101892.81;5054698;28;20036;-76
2023/06/28 05:34:39;;;;;;;15.93;7.05;;;;;;;15.47;100.00;101883.47;5054643;28;20389;-75
2023/06/28 05:37:05;;;;;;;19.05;7.15;;;;;;;15.54;100.00;101885.56;5054585;28;20131;-76
2023/06/28 05:39:31;;;;;;;23.08;6.55;;;;;;;15.57;100.00;101886.16;5055006;28;20037;-76
2023/06/28 05:41:56;;;;;;;17.75;6.97;;;;;;;15.60;100.00;101884.97;5054695;28;20029;-75
2023/06/28 05:44:21;;;;;;;23.77;6.72;;;;;;;15.60;100.00;101876.94;5054322;28;20127;-76
2023/06/28 05:46:47;;;;;;;20.98;7.30;;;;;;;15.65;100.00;101883.56;5053111;28;20037;-75
2023/06/28 05:49:12;;;;;;;17.45;7.03;;;;;;;15.73;100.00;101881.97;5054367;28;20049;-75
2023/06/28 05:51:37;;;;;;;19.95;7.30;;;;;;;15.78;100.00;101888.63;5054209;28;20384;-75
2023/06/28 05:54:03;;;;;;;18.55;7.47;;;;;;;15.85;100.00;101880.81;5052721;28;20033;-75
2023/06/28 05:56:29;;;;;;;17.88;7.22;;;;;;;15.92;100.00;101879.25;5054944;28;20453;-76
2023/06/28 05:58:56;;;;;;;12.52;6.55;;;;;;;16.00;100.00;101884.72;5054828;28;20056;-75
2023/06/28 06:01:24;;;;;;;18.13;7.05;;;;;;;16.11;100.00;101878.28;5054014;28;20033;-75
2023/06/28 06:03:50;;;;;;;15.57;6.78;;;;;;;16.20;100.00;101873.88;5053899;28;20088;-75
2023/06/28 06:06:17;;;;;;;20.00;6.70;;;;;;;16.27;100.00;101879.47;5052726;28;20037;-75
2023/06/28 06:08:43;;;;;;;15.38;6.35;;;;;;;16.32;100.00;101869.97;5054360;28;20028;-76
2023/06/28 06:11:08;;;;;;;21.48;6.72;;;;;;;16.36;100.00;101874.03;5053936;28;20036;-76
2023/06/28 06:13:33;;;;;;;24.50;6.97;;;;;;;16.36;100.00;101874.03;5053602;28;20456;-74
2023/06/28 06:15:59;;;;;;;17.13;6.65;;;;;;;16.40;100.00;101879.94;5053849;28;20077;-75
2023/06/28 06:18:24;;;;;;;17.67;6.40;;;;;;;16.44;100.00;101877.81;5054270;28;20048;-75
2023/06/28 06:20:50;;;;;;;19.65;5.97;;;;;;;16.47;100.00;101883.72;5053994;28;20083;-75
2023/06/28 06:23:19;;;;;;;19.17;6.82;;;;;;;16.46;100.00;101873.94;5053228;28;20056;-75
2023/06/28 06:25:45;;;;;;;14.13;5.90;;;;;;;16.48;100.00;101885.41;5053622;28;20033;-75
2023/06/28 06:28:10;;;;;;;17.95;6.90;;;;;;;16.51;100.00;101879.72;5053638;28;20028;-76
2023/06/28 06:30:36;;;;;;;23.95;5.95;;;;;;;16.54;100.00;101879.41;5053381;28;20388;-74
2023/06/28 06:33:01;;;;;;;16.95;6.00;;;;;;;16.60;100.00;101887.84;5051918;28;20080;-74
2023/06/28 06:35:27;;;;;;;18.98;5.90;;;;;;;16.70;100.00;101875.19;5053202;28;20115;-74
2023/06/28 06:37:53;;;;;;;12.77;5.95;;;;;;;16.80;100.00;101875.94;5053304;28;20112;-74
2023/06/28 06:40:19;;;;;;;16.15;6.32;;;;;;;16.96;100.00;101871.72;5053586;28;20387;-74
2023/06/28 06:42:45;;;;;;;14.43;6.03;;;;;;;17.10;100.00;101882.75;5052962;28;20035;-74
2023/06/28 06:45:10;;;;;;;18.95;6.70;;;;;;;17.23;100.00;101876.97;5052773;28;20037;-74
2023/06/28 06:47:38;;;;;;;21.40;6.93;;;;;;;17.35;100.00;101882.94;5053215;28;20033;-74
2023/06/28 06:50:03;;;;;;;18.00;6.20;;;;;;;17.41;100.00;101887.69;5052836;28;20491;-74
2023/06/28 06:52:29;;;;;;;16.98;6.28;;;;;;;17.47;100.00;101888.06;5053415;28;20049;-74
2023/06/28 06:54:54;;;;;;;15.35;6.15;;;;;;;17.47;100.00;101883.53;5052711;28;20056;-74
2023/06/28 06:57:19;;;;;;;17.25;6.22;;;;;;;17.50;100.00;101885.91;5052840;28;20064;-74
2023/06/28 06:59:45;;;;;;;16.25;6.63;;;;;;;17.57;100.00;101880.69;5053097;28;20033;-73
2023/06/28 07:02:10;;;;;;;20.38;6.70;;;;;;;17.59;100.00;101887.63;5052876;28;20033;-77
2023/06/28 07:04:36;;;;;;;23.73;6.93;;;;;;;17.65;100.00;101896.06;5052768;28;20040;-74
2023/06/28 07:07:02;;;;;;;21.58;6.80;;;;;;;17.69;100.00;101892.91;5053088;28;20056;-75
2023/06/28 07:09:28;;;;;;;16.60;6.22;;;;;;;17.76;100.00;101890.41;5052653;28;20462;-73
2023/06/28 07:11:53;;;;;;;17.42;6.22;;;;;;;17.85;100.00;101894.81;5052662;28;20036;-73
2023/06/28 07:14:19;;;;;;;16.40;7.07;;;;;;;18.01;100.00;101893.25;5052985;28;20033;-75
2023/06/28 07:16:45;;;;;;;11.85;5.88;;;;;;;18.19;100.00;101890.44;5052725;28;20037;-76
2023/06/28 07:19:11;;;;;;;17.95;6.63;;;;;;;18.38;100.00;101892.84;5052672;28;20033;-75
2023/06/28 07:21:36;;;;;;;20.90;7.63;;;;;;;18.41;100.00;101894.38;5053207;28;20044;-76
2023/06/28 07:24:02;;;;;;;16.05;6.63;;;;;;;18.43;100.00;101897.72;5052580;28;20029;-76
2023/06/28 07:26:28;;;;;;;13.30;6.40;;;;;;;18.41;100.00;101899.75;5052871;28;20025;-77
2023/06/28 07:28:54;;;;;;;18.23;6.53;;;;;;;18.31;100.00;101903.41;5052320;28;20134;-77
2023/06/28 07:31:20;;;;;;;17.75;6.95;;;;;;;18.27;100.00;101907.47;5052529;28;20037;-77
2023/06/28 07:33:45;;;;;;;19.48;6.28;;;;;;;18.23;100.00;101907.97;5052887;28;20116;-75
2023/06/28 07:36:11;;;;;;;26.45;7.38;;;;;;;18.27;100.00;101902.09;5052632;28;20040;-77
2023/06/28 07:38:36;;;;;;;15.07;6.30;;;;;;;18.38;100.00;101898.22;5052644;28;20036;-76
2023/06/28 07:41:01;;;;;;;15.55;6.32;;;;;;;18.42;100.00;101896.91;5052398;28;20266;-76
2023/06/28 07:43:27;;;;;;;14.93;6.35;;;;;;;18.41;100.00;101895.19;5052496;28;20044;-75
2023/06/28 07:45:53;;;;;;;17.15;6.38;;;;;;;18.41;100.00;101900.59;5052855;28;20138;-77
2023/06/28 07:48:19;;;;;;;17.17;7.32;;;;;;;18.39;100.00;101899.06;5052872;28;20037;-79
2023/06/28 07:50:47;;;;;;;16.48;6.07;;;;;;;18.42;100.00;101896.91;5053091;28;20102;-78
2023/06/28 07:53:13;;;;;;;15.77;6.65;;;;;;;18.49;100.00;101897.91;5052801;28;20033;-75
2023/06/28 07:55:38;;;;;;;18.27;7.43;;;;;;;18.44;100.00;101902.94;5053160;28;20029;-74
2023/06/28 07:58:03;;;;;;;14.25;6.85;;;;;;;18.43;100.00;101893.19;5052563;28;20029;-73
2023/06/28 08:00:30;;;;;;;18.83;7.35;;;;;;;18.41;100.00;101900.59;5052884;28;20055;-75
2023/06/28 08:02:56;;;;;;;17.65;6.90;;;;;;;18.40;100.00;101898.91;5052850;28;20037;-73
2023/06/28 08:05:22;;;;;;;17.02;7.20;;;;;;;18.40;100.00;101896.19;5052622;28;20098;-77
2023/06/28 08:07:48;;;;;;;22.35;6.93;;;;;;;18.45;100.00;101901.09;5052939;28;20041;-77
2023/06/28 08:10:14;;;;;;;19.40;6.97;;;;;;;18.47;100.00;101896.41;5037968;28;20472;-77
2023/06/28 08:12:39;;;;;;;15.88;6.40;;;;;;;18.55;100.00;101900.97;5055897;28;20159;-75
2023/06/28 08:15:05;;;;;;;18.27;6.40;;;;;;;18.66;100.00;101898.78;5055963;28;20040;-75
2023/06/28 08:17:30;;;;;;;19.27;7.47;;;;;;;18.83;100.00;101899.63;5056080;28;20358;-76
2023/06/28 08:19:56;;;;;;;14.30;7.05;;;;;;;19.01;100.00;101902.19;5056255;28;20037;-73
2023/06/28 08:22:21;;;;;;;15.30;7.28;;;;;;;19.16;100.00;101902.34;5055220;28;20036;-73
2023/06/28 08:24:50;;;;;;;20.80;7.13;;;;;;;19.34;100.00;101901.31;5055881;28;20037;-76
2023/06/28 08:27:15;;;;;;;13.70;7.05;;;;;;;19.54;100.00;101899.06;5055806;28;20134;-77
2023/06/28 08:29:41;;;;;;;19.63;7.20;;;;;;;19.67;100.00;101898.53;5055531;28;20037;-75
2023/06/28 08:32:06;;;;;;;17.70;7.50;;;;;;;19.74;100.00;101904.94;5055752;28;20432;-76
2023/06/28 08:34:32;;;;;;;22.33;7.72;;;;;;;19.71;100.00;101903.41;5055650;28;20039;-75
2023/06/28 08:36:57;;;;;;;19.35;7.43;;;;;;;19.69;100.00;101897.34;5056142;28;20112;-74
2023/06/28 08:39:22;;;;;;;25.70;7.90;;;;;;;19.65;100.00;101898.72;5055716;28;20125;-74
2023/06/28 08:41:48;;;;;;;20.00;8.40;;;;;;;19.62;100.00;101900.94;5055695;28;20056;-76
2023/06/28 08:44:18;;;;;;;17.45;8.90;;;;;;;19.48;100.00;101897.91;5055762;28;20033;-76
2023/06/28 08:46:46;;;;;;;22.23;8.23;;;;;;;19.34;100.00;101895.91;5055553;28;20490;-76
2023/06/28 08:49:13;;;;;;;18.98;8.07;;;;;;;19.23;100.00;101899.81;5055282;28;20080;-77
2023/06/28 08:51:39;;;;;;;19.80;8.45;;;;;;;19.18;100.00;101896.78;5055224;28;20033;-77
2023/06/28 08:54:06;;;;;;;20.83;8.82;;;;;;;19.24;100.00;101901.47;5055948;28;20024;-74
2023/06/28 08:56:32;;;;;;;17.30;8.63;;;;;;;19.31;100.00;101893.56;5055360;28;20033;-75
2023/06/28 08:58:57;;;;;;;17.75;9.15;;;;;;;19.41;100.00;101899.63;5055684;28;20118;-75
2023/06/28 09:01:23;;;;;;;25.23;9.15;;;;;;;19.46;100.00;101904.50;5055944;28;20033;-76
2023/06/28 09:03:49;;;;;;;22.42;10.38;;;;;;;19.57;100.00;101898.72;5055421;28;20384;-76
2023/06/28 09:06:15;;;;;;;22.75;9.55;;;;;;;19.62;100.00;101899.06;5055045;28;20537;-76
2023/06/28 09:08:42;;;;;;;21.00;8.95;;;;;;;19.60;100.00;101901.09;5055292;28;20381;-74
2023/06/28 09:11:08;;;;;;;19.38;8.48;;;;;;;19.56;100.00;101900.59;5054739;28;20032;-77
2023/06/28 09:13:34;;;;;;;23.13;9.32;;;;;;;19.61;100.00;101902.75;5055026;28;20029;-77
2023/06/28 09:16:00;;;;;;;22.30;9.57;;;;;;;19.78;100.00;101892.81;5055558;28;20511;-77
2023/06/28 09:18:26;;;;;;;21.20;8.93;;;;;;;20.03;100.00;101898.09;5055182;28;20470;-79
2023/06/28 09:20:53;;;;;;;17.60;9.00;;;;;;;20.30;100.00;101901.31;5055000;28;20056;-77
2023/06/28 09:23:37;;;;;;;19.67;9.23;;;;;;;20.47;100.00;101891.25;5054793;28;20116;-76
2023/06/28 09:26:03;;;;;;;20.10;8.48;;;;;;;20.44;100.00;101897.88;5054630;28;20037;-77
2023/06/28 09:28:33;;;;;;;20.80;9.20;;;;;;;20.39;100.00;101889.44;5054707;28;20490;-77
2023/06/28 09:30:59;;;;;;;26.70;9.68;;;;;;;20.23;100.00;101891.22;5054921;28;20067;-78
2023/06/28 09:33:25;;;;;;;21.65;8.88;;;;;;;20.15;100.00;101893.13;5054673;28;20052;-75
2023/06/28 09:35:55;;;;;;;19.10;8.95;;;;;;;20.15;100.00;101885.03;5054291;28;20033;-76
2023/06/28 09:38:21;;;;;;;20.47;8.47;;;;;;;20.28;100.00;101892.56;5054197;28;20029;-76
2023/06/28 09:41:13;;;;;;;16.02;8.45;;;;;;;20.38;100.00;101877.81;5053948;28;20032;-77
2023/06/28 09:43:38;;;;;;;28.02;10.13;;;;;;;20.53;100.00;101891.38;5053189;28;20098;-76
2023/06/28 09:46:14;;;;;;;22.23;8.00;;;;;;;20.62;100.00;101892.16;5054096;28;20029;-77
2023/06/28 09:48:57;;;;;;;20.23;7.43;;;;;;;20.61;100.00;101888.59;5054043;28;20033;-75
2023/06/28 09:51:23;;;;;;;21.38;8.07;;;;;;;20.60;100.00;101891.50;5054696;28;20059;-75
2023/06/28 09:53:53;;;;;;;23.10;7.63;;;;;;;20.51;100.00;101885.31;5054416;28;20037;-74
2023/06/28 09:56:34;;;;;;;19.58;7.70;;;;;;;20.36;100.00;101882.56;5054185;28;20454;-75
2023/06/28 09:59:05;;;;;;;18.20;7.28;;;;;;;20.36;100.00;101893.38;5054118;28;20373;-76
2023/06/28 10:01:30;;;;;;;25.35;7.22;;;;;;;20.39;100.00;101889.44;5053271;28;20435;-76
2023/06/28 10:03:58;;;;;;;17.73;7.47;;;;;;;20.41;100.00;101887.41;5053832;28;20155;-75
2023/06/28 10:06:25;;;;;;;25.25;7.03;;;;;;;20.42;100.00;101889.94;5053934;28;20108;-75
2023/06/28 10:08:50;;;;;;;16.33;7.22;;;;;;;20.41;100.00;101890.13;5053953;28;20063;-75
2023/06/28 10:11:16;;;;;;;18.63;7.47;;;;;;;20.43;100.00;101888.91;5052225;28;20124;-76
2023/06/28 10:13:45;;;;;;;24.25;7.15;;;;;;;20.54;100.00;101882.25;5053657;28;20029;-75
2023/06/28 10:16:18;;;;;;;24.90;8.10;;;;;;;20.84;100.00;101879.69;5053648;28;20112;-77
2023/06/28 10:18:44;;;;;;;18.60;7.57;;;;;;;21.30;100.00;101886.88;5053717;28;20031;-76
2023/06/28 10:21:10;;;;;;;19.67;7.40;;;;;;;21.79;100.00;101890.94;5052233;28;20115;-77
2023/06/28 10:23:39;;;;;;;19.50;7.35;;;;;;;22.18;100.00;101882.47;5052991;28;20086;-75
2023/06/28 10:26:05;;;;;;;18.15;7.10;;;;;;;22.51;100.00;101881.16;5053006;28;20388;-76
2023/06/28 10:28:34;;;;;;;16.73;7.25;;;;;;;22.85;100.00;101880.41;5053331;28;20029;-75
2023/06/28 10:31:01;;;;;;;19.00;7.53;;;;;;;23.12;100.00;101875.25;5052750;28;20104;-80
2023/06/28 10:33:31;;;;;;;17.77;7.35;;;;;;;23.16;100.00;101883.84;5053895;28;20234;-76
2023/06/28 10:36:00;;;;;;;18.30;7.57;;;;;;;23.15;100.00;101872.13;5053343;28;20116;-77
2023/06/28 10:38:26;;;;;;;18.65;7.82;;;;;;;23.12;100.00;101885.28;5052980;28;20029;-78
2023/06/28 10:40:51;;;;;;;18.38;7.82;;;;;;;23.07;100.00;101878.53;5053082;28;20075;-79
2023/06/28 10:43:24;;;;;;;18.05;8.20;;;;;;;23.10;100.00;101882.75;5053343;28;20033;-77
2023/06/28 10:45:54;;;;;;;18.73;8.10;;;;;;;22.85;100.00;101885.84;5053151;28;20028;-76
2023/06/28 10:48:21;;;;;;;15.63;7.75;;;;;;;22.68;100.00;101890.72;5053932;28;20127;-80
2023/06/28 10:50:47;;;;;;;21.45;8.95;;;;;;;22.63;100.00;101886.91;5054254;28;20103;-83
2023/06/28 10:53:22;;;;;;;19.92;8.77;;;;;;;22.54;100.00;101889.75;5056001;28;20040;-86
2023/06/28 10:56:07;;;;;;;16.45;7.80;;;;;;;22.60;100.00;101888.16;5053405;28;20033;-85
2023/06/28 10:58:54;;;;;;;27.58;8.73;;;;;;;22.80;100.00;101887.50;5053045;28;20382;-86
2023/06/28 11:01:38;;;;;;;16.95;8.70;;;;;;;22.80;100.00;101888.31;5052410;28;20420;-85
2023/06/28 11:04:16;;;;;;;24.13;8.98;;;;;;;22.77;100.00;101883.28;5054955;28;20068;-83
2023/06/28 11:06:41;;;;;;;19.75;9.05;;;;;;;22.66;100.00;101881.09;5053502;28;20025;-89